createdAt,value
2019-04-27T00:00:20.244Z,11.42
2019-04-27T00:01:20.262Z,11.39
2019-04-27T00:02:24.848Z,11.39
2019-04-27T00:03:23.332Z,11.36
2019-04-27T00:04:20.203Z,11.42
2019-04-27T00:05:20.198Z,11.36
2019-04-27T00:06:20.206Z,11.36
2019-04-27T00:07:21.200Z,11.25
2019-04-27T00:08:20.167Z,11.39
2019-04-27T00:09:20.153Z,11.36
2019-04-27T00:10:20.446Z,11.35
2019-04-27T00:11:20.152Z,11.27
2019-04-27T00:12:22.432Z,11.24
2019-04-27T00:13:22.888Z,11.39
2019-04-27T00:14:20.092Z,11.19
2019-04-27T00:15:20.085Z,11.33
2019-04-27T00:16:20.094Z,11.27
2019-04-27T00:17:40.407Z,11.33
2019-04-27T00:18:21.057Z,11.33
2019-04-27T00:19:20.044Z,11.35
2019-04-27T00:20:21.733Z,11.27
2019-04-27T00:21:20.017Z,11.25
2019-04-27T00:22:20.021Z,11.22
2019-04-27T00:23:20.002Z,11.29
2019-04-27T00:24:19.984Z,11.27
2019-04-27T00:25:19.981Z,11.25
2019-04-27T00:26:19.977Z,11.25
2019-04-27T00:27:19.979Z,11.18
2019-04-27T00:28:19.956Z,11.17
2019-04-27T00:29:19.940Z,11.19
2019-04-27T00:30:19.920Z,11.25
2019-04-27T00:31:19.919Z,11.19
2019-04-27T00:32:19.939Z,11.18
2019-04-27T00:33:19.897Z,11.21
2019-04-27T00:34:19.879Z,11.19
2019-04-27T00:35:19.916Z,11.17
2019-04-27T00:36:19.859Z,11.09
2019-04-27T00:37:19.870Z,11.06
2019-04-27T00:38:19.862Z,11.07
2019-04-27T00:39:19.834Z,11.09
2019-04-27T00:40:19.816Z,11.11
2019-04-27T00:41:19.805Z,11.14
2019-04-27T00:42:19.801Z,11.00
2019-04-27T00:43:19.815Z,11.00
2019-04-27T00:44:19.773Z,11.11
2019-04-27T00:45:19.762Z,11.00
2019-04-27T00:46:19.749Z,11.03
2019-04-27T00:47:19.740Z,10.97
2019-04-27T00:48:19.749Z,10.96
2019-04-27T00:49:20.315Z,10.96
2019-04-27T00:50:19.712Z,10.99
2019-04-27T00:51:19.700Z,10.96
2019-04-27T00:52:19.692Z,10.94
2019-04-27T00:53:19.691Z,10.96
2019-04-27T00:54:19.664Z,10.96
2019-04-27T00:55:19.666Z,10.85
2019-04-27T00:56:19.658Z,10.89
2019-04-27T00:57:19.639Z,10.85
2019-04-27T00:58:19.648Z,10.92
2019-04-27T00:59:19.619Z,10.85
2019-04-27T01:00:19.602Z,10.88
2019-04-27T01:01:19.600Z,10.79
2019-04-27T01:02:19.581Z,10.78
2019-04-27T01:03:19.585Z,10.76
2019-04-27T01:04:19.565Z,10.79
2019-04-27T01:05:19.545Z,10.68
2019-04-27T01:06:19.545Z,10.73
2019-04-27T01:07:19.529Z,10.68
2019-04-27T01:08:19.531Z,10.70
2019-04-27T01:09:19.514Z,10.64
2019-04-27T01:10:19.495Z,10.70
2019-04-27T01:11:19.481Z,10.73
2019-04-27T01:12:19.472Z,10.64
2019-04-27T01:13:19.475Z,10.68
2019-04-27T01:14:19.450Z,10.64
2019-04-27T01:15:19.439Z,10.66
2019-04-27T01:16:22.026Z,10.64
2019-04-27T01:17:19.421Z,10.63
2019-04-27T01:18:19.552Z,10.60
2019-04-27T01:19:19.404Z,10.51
2019-04-27T01:20:19.404Z,10.59
2019-04-27T01:21:19.508Z,10.60
2019-04-27T01:22:19.394Z,10.52
2019-04-27T01:23:19.406Z,10.60
2019-04-27T01:24:19.342Z,10.56
2019-04-27T01:25:19.332Z,10.51
2019-04-27T01:26:19.320Z,10.44
2019-04-27T01:27:19.314Z,10.56
2019-04-27T01:28:20.675Z,10.48
2019-04-27T01:29:19.402Z,10.45
2019-04-27T01:30:19.287Z,10.42
2019-04-27T01:31:19.447Z,10.52
2019-04-27T01:32:20.762Z,10.45
2019-04-27T01:33:19.779Z,10.48
2019-04-27T01:34:19.384Z,10.53
2019-04-27T01:35:19.235Z,10.45
2019-04-27T01:36:19.209Z,10.41
2019-04-27T01:37:21.031Z,10.38
2019-04-27T01:38:19.280Z,10.38
2019-04-27T01:39:19.204Z,10.42
2019-04-27T01:40:19.385Z,10.45
2019-04-27T01:41:19.375Z,10.40
2019-04-27T01:42:19.365Z,10.41
2019-04-27T01:43:19.130Z,10.34
2019-04-27T01:44:19.495Z,10.34
2019-04-27T01:45:19.114Z,10.34
2019-04-27T01:46:19.636Z,10.32
2019-04-27T01:47:19.090Z,10.33
2019-04-27T01:48:25.072Z,10.33
2019-04-27T01:49:20.083Z,10.40
2019-04-27T01:50:19.062Z,10.36
2019-04-27T01:51:20.941Z,10.38
2019-04-27T01:52:19.488Z,10.30
2019-04-27T01:53:19.145Z,10.32
2019-04-27T01:54:19.424Z,10.34
2019-04-27T01:55:19.002Z,10.26
2019-04-27T01:56:19.567Z,10.27
2019-04-27T01:57:19.495Z,10.25
2019-04-27T01:58:20.233Z,10.29
2019-04-27T01:59:19.915Z,10.23
2019-04-27T02:00:19.396Z,10.32
2019-04-27T02:01:18.957Z,10.32
2019-04-27T02:02:19.127Z,10.25
2019-04-27T02:03:19.793Z,10.18
2019-04-27T02:04:19.331Z,10.26
2019-04-27T02:05:19.152Z,10.25
2019-04-27T02:06:19.087Z,10.18
2019-04-27T02:07:19.246Z,10.20
2019-04-27T02:08:19.613Z,10.20
2019-04-27T02:09:18.900Z,10.08
2019-04-27T02:10:19.285Z,10.14
2019-04-27T02:11:18.829Z,10.11
2019-04-27T02:12:19.294Z,10.11
2019-04-27T02:13:18.963Z,10.17
2019-04-27T02:14:19.619Z,10.14
2019-04-27T02:15:19.232Z,10.11
2019-04-27T02:16:18.859Z,10.12
2019-04-27T02:17:18.882Z,10.08
2019-04-27T02:18:19.452Z,9.99
2019-04-27T02:19:19.352Z,9.97
2019-04-27T02:20:19.753Z,10.02
2019-04-27T02:21:19.267Z,10.04
2019-04-27T02:22:18.856Z,9.97
2019-04-27T02:23:19.225Z,9.91
2019-04-27T02:24:18.773Z,9.90
2019-04-27T02:25:18.920Z,9.94
2019-04-27T02:26:19.175Z,9.89
2019-04-27T02:27:18.759Z,9.86
2019-04-27T02:28:19.499Z,9.79
2019-04-27T02:29:18.921Z,9.81
2019-04-27T02:30:20.638Z,9.81
2019-04-27T02:31:19.343Z,9.83
2019-04-27T02:32:20.310Z,9.79
2019-04-27T02:33:20.314Z,9.79
2019-04-27T02:34:19.862Z,9.83
2019-04-27T02:35:19.320Z,9.83
2019-04-27T02:36:20.247Z,9.72
2019-04-27T02:37:20.021Z,9.74
2019-04-27T02:38:20.138Z,9.71
2019-04-27T02:39:19.745Z,9.75
2019-04-27T02:40:20.481Z,9.76
2019-04-27T02:41:19.868Z,9.68
2019-04-27T02:42:20.075Z,9.71
2019-04-27T02:43:19.428Z,9.72
2019-04-27T02:44:19.935Z,9.71
2019-04-27T02:45:19.590Z,9.69
2019-04-27T02:46:20.077Z,9.58
2019-04-27T02:47:20.880Z,9.58
2019-04-27T02:48:19.892Z,9.64
2019-04-27T02:49:20.133Z,9.65
2019-04-27T02:50:19.327Z,9.64
2019-04-27T02:51:20.328Z,9.71
2019-04-27T02:52:19.863Z,9.69
2019-04-27T02:53:19.704Z,9.60
2019-04-27T02:54:20.441Z,9.65
2019-04-27T02:55:19.749Z,9.65
2019-04-27T02:56:20.230Z,9.58
2019-04-27T02:57:19.831Z,9.57
2019-04-27T02:58:21.478Z,9.65
2019-04-27T02:59:19.866Z,9.58
2019-04-27T03:00:20.377Z,9.53
2019-04-27T03:01:20.106Z,9.53
2019-04-27T03:02:19.618Z,9.54
2019-04-27T03:03:20.383Z,9.50
2019-04-27T03:04:20.407Z,9.42
2019-04-27T03:05:19.655Z,9.46
2019-04-27T03:06:19.845Z,9.40
2019-04-27T03:07:20.099Z,9.42
2019-04-27T03:08:20.030Z,9.38
2019-04-27T03:09:20.463Z,9.42
2019-04-27T03:10:19.853Z,9.40
2019-04-27T03:11:20.487Z,9.32
2019-04-27T03:12:19.327Z,9.50
2019-04-27T03:13:20.034Z,9.33
2019-04-27T03:14:29.689Z,9.31
2019-04-27T03:15:22.831Z,9.35
2019-04-27T03:16:20.327Z,9.35
2019-04-27T03:17:19.907Z,9.35
2019-04-27T03:18:19.497Z,9.31
2019-04-27T03:19:21.676Z,9.35
2019-04-27T03:20:20.133Z,9.28
2019-04-27T03:21:20.130Z,9.26
2019-04-27T03:22:19.428Z,9.33
2019-04-27T03:23:19.951Z,9.23
2019-04-27T03:24:19.927Z,9.21
2019-04-27T03:25:20.228Z,9.28
2019-04-27T03:26:19.618Z,9.31
2019-04-27T03:27:20.082Z,9.18
2019-04-27T03:28:20.069Z,9.24
2019-04-27T03:29:20.224Z,9.26
2019-04-27T03:30:22.536Z,9.08
2019-04-27T03:31:21.583Z,9.13
2019-04-27T03:32:22.008Z,9.13
2019-04-27T03:33:22.301Z,9.11
2019-04-27T03:34:22.406Z,9.14
2019-04-27T03:35:22.194Z,9.14
2019-04-27T03:36:21.424Z,9.10
2019-04-27T03:37:20.118Z,9.11
2019-04-27T03:38:19.753Z,9.05
2019-04-27T03:39:19.932Z,9.05
2019-04-27T03:40:20.416Z,9.08
2019-04-27T03:41:19.262Z,9.04
2019-04-27T03:42:20.495Z,9.05
2019-04-27T03:43:19.978Z,8.99
2019-04-27T03:44:19.224Z,8.98
2019-04-27T03:45:20.022Z,8.95
2019-04-27T03:46:20.237Z,8.98
2019-04-27T03:47:19.777Z,9.02
2019-04-27T03:48:20.190Z,8.91
2019-04-27T03:49:31.928Z,8.99
2019-04-27T03:50:20.353Z,9.01
2019-04-27T03:51:19.633Z,8.91
2019-04-27T03:52:19.734Z,9.01
2019-04-27T03:53:22.677Z,8.95
2019-04-27T03:54:19.430Z,8.98
2019-04-27T03:55:19.733Z,8.94
2019-04-27T03:56:19.883Z,8.91
2019-04-27T03:57:19.936Z,8.94
2019-04-27T03:58:21.404Z,8.99
2019-04-27T03:59:19.564Z,9.01
2019-04-27T04:00:20.013Z,8.96
2019-04-27T04:01:20.123Z,8.89
2019-04-27T04:02:19.762Z,8.89
2019-04-27T04:03:17.600Z,8.96
2019-04-27T04:04:19.541Z,8.89
2019-04-27T04:05:19.648Z,8.89
2019-04-27T04:06:19.286Z,8.94
2019-04-27T04:07:19.484Z,8.94
2019-04-27T04:08:19.278Z,8.81
2019-04-27T04:09:19.154Z,8.94
2019-04-27T04:10:19.787Z,8.89
2019-04-27T04:11:19.691Z,8.94
2019-04-27T04:12:19.745Z,8.94
2019-04-27T04:13:17.468Z,8.96
2019-04-27T04:14:17.481Z,8.84
2019-04-27T04:15:19.863Z,8.84
2019-04-27T04:16:17.451Z,8.89
2019-04-27T04:17:20.188Z,8.91
2019-04-27T04:18:19.641Z,8.91
2019-04-27T04:19:19.689Z,8.91
2019-04-27T04:20:20.013Z,8.89
2019-04-27T04:21:19.452Z,8.91
2019-04-27T04:22:19.830Z,8.91
2019-04-27T04:23:19.860Z,8.94
2019-04-27T04:24:19.724Z,8.98
2019-04-27T04:25:19.873Z,8.96
2019-04-27T04:26:19.223Z,8.95
2019-04-27T04:27:17.325Z,8.92
2019-04-27T04:28:19.663Z,8.96
2019-04-27T04:29:17.309Z,8.92
2019-04-27T04:30:19.795Z,8.94
2019-04-27T04:31:17.278Z,8.95
2019-04-27T04:32:19.196Z,8.94
2019-04-27T04:33:17.265Z,8.98
2019-04-27T04:34:19.564Z,8.98
2019-04-27T04:35:17.229Z,8.96
2019-04-27T04:36:17.221Z,8.95
2019-04-27T04:37:19.525Z,8.94
2019-04-27T04:38:20.333Z,8.96
2019-04-27T04:39:19.583Z,8.95
2019-04-27T04:40:19.639Z,8.96
2019-04-27T04:41:19.989Z,8.95
2019-04-27T04:42:19.560Z,8.92
2019-04-27T04:43:19.683Z,8.98
2019-04-27T04:44:20.141Z,8.96
2019-04-27T04:45:17.135Z,8.95
2019-04-27T04:46:19.090Z,8.98
2019-04-27T04:47:19.462Z,8.95
2019-04-27T04:48:17.085Z,8.94
2019-04-27T04:49:19.280Z,8.94
2019-04-27T04:50:17.062Z,8.99
2019-04-27T04:51:17.051Z,8.95
2019-04-27T04:52:19.542Z,8.95
2019-04-27T04:53:17.027Z,8.98
2019-04-27T04:54:19.600Z,9.04
2019-04-27T04:55:17.033Z,8.96
2019-04-27T04:56:18.806Z,9.01
2019-04-27T04:57:16.983Z,9.01
2019-04-27T04:58:16.991Z,9.04
2019-04-27T04:59:16.964Z,8.98
2019-04-27T05:00:16.968Z,9.05
2019-04-27T05:01:16.951Z,9.11
2019-04-27T05:02:19.078Z,9.14
2019-04-27T05:03:16.917Z,9.13
2019-04-27T05:04:16.908Z,9.14
2019-04-27T05:05:16.928Z,9.11
2019-04-27T05:06:16.888Z,9.14
2019-04-27T05:07:16.874Z,9.17
2019-04-27T05:08:16.870Z,9.18
2019-04-27T05:09:16.866Z,9.26
2019-04-27T05:10:18.729Z,9.24
2019-04-27T05:11:16.841Z,9.28
2019-04-27T05:12:16.847Z,9.26
2019-04-27T05:13:16.807Z,9.31
2019-04-27T05:14:16.797Z,9.33
2019-04-27T05:15:16.793Z,9.32
2019-04-27T05:16:16.792Z,9.32
2019-04-27T05:17:16.764Z,9.36
2019-04-27T05:18:16.755Z,9.36
2019-04-27T05:19:18.746Z,9.43
2019-04-27T05:20:24.718Z,9.39
2019-04-27T05:21:18.530Z,9.57
2019-04-27T05:22:16.707Z,9.53
2019-04-27T05:23:18.528Z,9.54
2019-04-27T05:24:16.691Z,9.53
2019-04-27T05:25:18.461Z,9.57
2019-04-27T05:26:16.665Z,9.58
2019-04-27T05:27:16.661Z,9.64
2019-04-27T05:28:18.599Z,9.61
2019-04-27T05:29:16.629Z,9.64
2019-04-27T05:30:16.643Z,9.71
2019-04-27T05:31:16.607Z,9.71
2019-04-27T05:32:16.604Z,9.79
2019-04-27T05:33:18.193Z,9.79
2019-04-27T05:34:16.573Z,9.75
2019-04-27T05:35:16.587Z,9.86
2019-04-27T05:36:16.588Z,9.79
2019-04-27T05:37:16.546Z,9.81
2019-04-27T05:38:16.544Z,9.96
2019-04-27T05:39:18.068Z,9.99
2019-04-27T05:40:18.927Z,9.93
2019-04-27T05:41:16.517Z,10.01
2019-04-27T05:42:18.964Z,9.97
2019-04-27T05:43:16.484Z,10.09
2019-04-27T05:44:18.436Z,10.14
2019-04-27T05:45:19.910Z,10.18
2019-04-27T05:46:19.013Z,10.25
2019-04-27T05:47:16.436Z,10.25
2019-04-27T05:48:16.419Z,10.27
2019-04-27T05:49:16.408Z,10.32
2019-04-27T05:50:18.385Z,10.27
2019-04-27T05:51:17.407Z,10.32
2019-04-27T05:52:16.386Z,10.40
2019-04-27T05:53:16.365Z,10.41
2019-04-27T05:54:16.361Z,10.51
2019-04-27T05:55:16.341Z,10.45
2019-04-27T05:56:16.347Z,10.56
2019-04-27T05:57:16.328Z,10.63
2019-04-27T05:58:16.322Z,10.60
2019-04-27T05:59:16.299Z,10.64
2019-04-27T06:00:16.298Z,10.66
2019-04-27T06:01:16.293Z,10.76
2019-04-27T06:02:16.261Z,10.76
2019-04-27T06:03:16.253Z,10.76
2019-04-27T06:04:16.242Z,10.88
2019-04-27T06:05:16.227Z,10.88
2019-04-27T06:06:16.252Z,10.96
2019-04-27T06:07:16.210Z,10.88
2019-04-27T06:08:16.212Z,10.96
2019-04-27T06:09:16.189Z,11.11
2019-04-27T06:10:16.172Z,11.11
2019-04-27T06:11:16.188Z,11.14
2019-04-27T06:12:16.177Z,11.28
2019-04-27T06:13:16.161Z,11.29
2019-04-27T06:14:16.135Z,11.35
2019-04-27T06:15:16.122Z,11.33
2019-04-27T06:16:16.124Z,11.42
2019-04-27T06:17:16.111Z,11.44
2019-04-27T06:18:16.085Z,11.42
2019-04-27T06:19:16.075Z,11.44
2019-04-27T06:20:16.070Z,11.49
2019-04-27T06:21:16.051Z,11.49
2019-04-27T06:22:16.067Z,11.55
2019-04-27T06:23:16.029Z,11.51
2019-04-27T06:24:16.023Z,11.57
2019-04-27T06:25:16.018Z,11.54
2019-04-27T06:26:16.002Z,11.62
2019-04-27T06:27:16.024Z,11.55
2019-04-27T06:28:15.988Z,11.61
2019-04-27T06:29:15.966Z,11.60
2019-04-27T06:30:15.957Z,11.61
2019-04-27T06:31:15.961Z,11.72
2019-04-27T06:32:15.951Z,11.70
2019-04-27T06:33:29.232Z,11.83
2019-04-27T06:34:16.915Z,11.91
2019-04-27T06:35:15.898Z,11.88
2019-04-27T06:36:15.889Z,11.99
2019-04-27T06:37:15.893Z,12.07
2019-04-27T06:38:15.880Z,12.07
2019-04-27T06:39:15.853Z,12.12
2019-04-27T06:40:15.844Z,12.16
2019-04-27T06:41:15.835Z,12.24
2019-04-27T06:42:18.655Z,12.16
2019-04-27T06:43:15.815Z,12.32
2019-04-27T06:44:15.820Z,12.21
2019-04-27T06:45:15.793Z,12.27
2019-04-27T06:46:15.783Z,12.23
2019-04-27T06:47:15.787Z,12.35
2019-04-27T06:48:15.777Z,12.38
2019-04-27T06:49:15.751Z,12.46
2019-04-27T06:50:15.753Z,12.47
2019-04-27T06:51:15.724Z,12.52
2019-04-27T06:52:15.715Z,12.50
2019-04-27T06:53:15.722Z,12.41
2019-04-27T06:54:15.695Z,12.49
2019-04-27T06:55:15.687Z,12.45
2019-04-27T06:56:15.674Z,12.56
2019-04-27T06:57:15.661Z,12.49
2019-04-27T06:58:15.680Z,12.59
2019-04-27T06:59:15.641Z,12.68
2019-04-27T07:00:15.625Z,12.67
2019-04-27T07:01:15.627Z,12.65
2019-04-27T07:02:15.603Z,12.65
2019-04-27T07:03:15.617Z,12.54
2019-04-27T07:04:15.585Z,12.53
2019-04-27T07:05:15.579Z,12.56
2019-04-27T07:06:15.572Z,12.54
2019-04-27T07:07:15.562Z,12.50
2019-04-27T07:08:15.537Z,12.59
2019-04-27T07:09:15.554Z,12.54
2019-04-27T07:10:15.529Z,12.60
2019-04-27T07:11:15.530Z,12.59
2019-04-27T07:12:15.496Z,12.70
2019-04-27T07:13:15.511Z,12.64
2019-04-27T07:14:15.497Z,12.64
2019-04-27T07:15:15.662Z,12.71
2019-04-27T07:16:15.456Z,12.68
2019-04-27T07:17:15.444Z,12.52
2019-04-27T07:18:15.448Z,12.60
2019-04-27T07:19:15.440Z,12.54
2019-04-27T07:20:15.411Z,12.54
2019-04-27T07:21:18.983Z,12.57
2019-04-27T07:22:16.386Z,12.54
2019-04-27T07:23:15.383Z,12.56
2019-04-27T07:24:15.392Z,12.57
2019-04-27T07:25:15.386Z,12.62
2019-04-27T07:26:15.341Z,12.60
2019-04-27T07:27:15.343Z,12.67
2019-04-27T07:28:15.327Z,12.70
2019-04-27T07:29:15.325Z,12.70
2019-04-27T07:30:15.299Z,12.70
2019-04-27T07:31:15.285Z,12.74
2019-04-27T07:32:15.290Z,12.83
2019-04-27T07:33:15.267Z,12.85
2019-04-27T07:34:15.272Z,12.82
2019-04-27T07:35:15.243Z,12.83
2019-04-27T07:36:15.246Z,12.82
2019-04-27T07:37:15.225Z,12.95
2019-04-27T07:38:15.222Z,12.93
2019-04-27T07:39:15.241Z,13.03
2019-04-27T07:40:15.197Z,13.05
2019-04-27T07:41:15.182Z,12.97
2019-04-27T07:42:15.166Z,13.10
2019-04-27T07:43:15.165Z,13.15
2019-04-27T07:44:15.162Z,13.17
2019-04-27T07:45:15.130Z,13.10
2019-04-27T07:46:15.125Z,13.10
2019-04-27T07:47:15.117Z,13.11
2019-04-27T07:48:15.103Z,13.12
2019-04-27T07:49:15.124Z,13.01
2019-04-27T07:50:15.102Z,12.95
2019-04-27T07:51:15.087Z,12.90
2019-04-27T07:52:15.067Z,12.83
2019-04-27T07:53:15.050Z,12.79
2019-04-27T07:54:15.033Z,12.77
2019-04-27T07:55:15.045Z,12.64
2019-04-27T07:56:15.014Z,12.65
2019-04-27T07:57:15.005Z,12.56
2019-04-27T07:58:14.992Z,12.50
2019-04-27T07:59:14.995Z,12.49
2019-04-27T08:00:14.988Z,12.42
2019-04-27T08:01:14.958Z,12.47
2019-04-27T08:02:14.998Z,12.37
2019-04-27T08:03:14.941Z,12.35
2019-04-27T08:04:15.005Z,12.38
2019-04-27T08:05:14.938Z,12.24
2019-04-27T08:06:14.911Z,12.24
2019-04-27T08:07:14.890Z,12.20
2019-04-27T08:08:14.886Z,12.14
2019-04-27T08:09:14.873Z,12.23
2019-04-27T08:10:14.911Z,12.16
2019-04-27T08:11:14.851Z,12.21
2019-04-27T08:12:14.849Z,12.17
2019-04-27T08:13:14.830Z,12.21
2019-04-27T08:14:14.822Z,12.19
2019-04-27T08:15:14.813Z,12.21
2019-04-27T08:16:14.828Z,12.23
2019-04-27T08:17:14.805Z,12.19
2019-04-27T08:18:14.775Z,12.14
2019-04-27T08:19:14.770Z,12.14
2019-04-27T08:20:14.783Z,12.20
2019-04-27T08:21:14.752Z,12.10
2019-04-27T08:22:14.732Z,12.20
2019-04-27T08:23:14.729Z,12.13
2019-04-27T08:24:14.713Z,12.13
2019-04-27T08:25:14.727Z,12.17
2019-04-27T08:26:14.719Z,12.17
2019-04-27T08:27:14.679Z,12.12
2019-04-27T08:28:14.733Z,12.20
2019-04-27T08:29:14.654Z,12.19
2019-04-27T08:30:14.650Z,12.24
2019-04-27T08:31:14.691Z,12.13
2019-04-27T08:32:14.626Z,12.16
2019-04-27T08:33:14.614Z,12.05
2019-04-27T08:34:14.620Z,12.05
2019-04-27T08:35:14.605Z,11.99
2019-04-27T08:36:14.586Z,11.95
2019-04-27T08:37:14.608Z,11.96
2019-04-27T08:38:14.566Z,11.94
2019-04-27T08:39:14.557Z,11.96
2019-04-27T08:40:14.549Z,11.98
2019-04-27T08:41:14.537Z,11.86
2019-04-27T08:42:14.542Z,11.78
2019-04-27T08:43:14.512Z,11.86
2019-04-27T08:44:14.499Z,11.85
2019-04-27T08:45:14.506Z,11.83
2019-04-27T08:46:14.516Z,11.76
2019-04-27T08:47:14.465Z,11.73
2019-04-27T08:48:14.454Z,11.76
2019-04-27T08:49:14.453Z,11.78
2019-04-27T08:50:14.433Z,11.73
2019-04-27T08:51:14.436Z,11.70
2019-04-27T08:52:14.419Z,11.69
2019-04-27T08:53:14.412Z,11.72
2019-04-27T08:54:14.389Z,11.65
2019-04-27T08:55:14.379Z,11.70
2019-04-27T08:56:14.392Z,11.72
2019-04-27T08:57:14.360Z,11.64
2019-04-27T08:58:14.343Z,11.67
2019-04-27T08:59:14.331Z,11.70
2019-04-27T09:00:14.323Z,11.64
2019-04-27T09:01:14.335Z,11.69
2019-04-27T09:02:14.307Z,11.70
2019-04-27T09:03:14.285Z,11.73
2019-04-27T09:04:14.274Z,11.72
2019-04-27T09:05:14.263Z,11.64
2019-04-27T09:06:14.261Z,11.70
2019-04-27T09:07:14.294Z,11.72
2019-04-27T09:08:14.247Z,11.67
2019-04-27T09:09:14.225Z,11.61
2019-04-27T09:10:14.209Z,11.61
2019-04-27T09:11:14.201Z,11.60
2019-04-27T09:12:14.726Z,11.49
2019-04-27T09:13:14.225Z,11.54
2019-04-27T09:14:14.185Z,11.43
2019-04-27T09:15:14.154Z,11.47
2019-04-27T09:16:14.151Z,11.46
2019-04-27T09:17:14.161Z,11.44
2019-04-27T09:18:14.122Z,11.44
2019-04-27T09:19:14.109Z,11.47
2019-04-27T09:20:14.101Z,11.46
2019-04-27T09:21:14.107Z,11.51
2019-04-27T09:22:16.531Z,11.54
2019-04-27T09:23:14.069Z,11.44
2019-04-27T09:24:14.074Z,11.51
2019-04-27T09:25:14.077Z,11.54
2019-04-27T09:26:14.046Z,11.55
2019-04-27T09:27:14.332Z,11.52
2019-04-27T09:28:14.021Z,11.51
2019-04-27T09:29:14.011Z,11.51
2019-04-27T09:30:13.990Z,11.61
2019-04-27T09:31:13.985Z,11.57
2019-04-27T09:32:14.025Z,11.49
2019-04-27T09:33:13.960Z,11.47
2019-04-27T09:34:14.773Z,11.54
2019-04-27T09:35:13.941Z,11.62
2019-04-27T09:36:13.927Z,11.55
2019-04-27T09:37:13.973Z,11.55
2019-04-27T09:38:13.922Z,11.69
2019-04-27T09:39:13.893Z,11.73
2019-04-27T09:40:13.882Z,11.70
2019-04-27T09:41:13.890Z,11.70
2019-04-27T09:42:13.865Z,11.69
2019-04-27T09:43:15.679Z,11.75
2019-04-27T09:44:13.841Z,11.78
2019-04-27T09:45:13.832Z,11.76
2019-04-27T09:46:15.628Z,11.78
2019-04-27T09:47:13.817Z,11.80
2019-04-27T09:48:13.813Z,11.83
2019-04-27T09:49:15.710Z,11.76
2019-04-27T09:50:13.786Z,11.85
2019-04-27T09:51:13.765Z,11.98
2019-04-27T09:52:23.571Z,11.95
2019-04-27T09:53:15.840Z,12.02
2019-04-27T09:54:13.725Z,12.07
2019-04-27T09:55:13.720Z,12.20
2019-04-27T09:56:13.791Z,12.13
2019-04-27T09:57:13.698Z,12.32
2019-04-27T09:58:13.697Z,12.38
2019-04-27T09:59:13.761Z,12.35
2019-04-27T10:00:13.661Z,12.35
2019-04-27T10:01:15.888Z,12.29
2019-04-27T10:02:13.639Z,12.34
2019-04-27T10:03:13.668Z,12.39
2019-04-27T10:04:13.614Z,12.46
2019-04-27T10:05:13.609Z,12.49
2019-04-27T10:06:13.640Z,12.45
2019-04-27T10:07:13.590Z,12.47
2019-04-27T10:08:13.612Z,12.52
2019-04-27T10:09:13.565Z,12.54
2019-04-27T10:10:13.553Z,12.54
2019-04-27T10:11:13.540Z,12.59
2019-04-27T10:12:13.536Z,12.67
2019-04-27T10:13:13.543Z,12.70
2019-04-27T10:14:13.513Z,12.74
2019-04-27T10:15:13.500Z,12.72
2019-04-27T10:16:13.487Z,12.74
2019-04-27T10:17:13.484Z,12.74
2019-04-27T10:18:13.502Z,12.72
2019-04-27T10:19:13.452Z,12.74
2019-04-27T10:20:13.442Z,12.77
2019-04-27T10:21:13.443Z,12.74
2019-04-27T10:22:13.466Z,12.77
2019-04-27T10:23:13.407Z,12.74
2019-04-27T10:24:13.415Z,12.83
2019-04-27T10:25:13.405Z,12.79
2019-04-27T10:26:13.378Z,12.77
2019-04-27T10:27:13.360Z,12.85
2019-04-27T10:28:13.351Z,12.85
2019-04-27T10:29:13.355Z,12.79
2019-04-27T10:30:13.330Z,12.82
2019-04-27T10:31:13.314Z,12.78
2019-04-27T10:32:13.304Z,12.86
2019-04-27T10:33:13.321Z,12.79
2019-04-27T10:34:13.303Z,12.85
2019-04-27T10:35:13.275Z,12.92
2019-04-27T10:36:13.282Z,12.77
2019-04-27T10:37:13.253Z,12.79
2019-04-27T10:38:13.274Z,12.77
2019-04-27T10:39:13.793Z,12.86
2019-04-27T10:40:13.217Z,12.86
2019-04-27T10:41:13.214Z,12.75
2019-04-27T10:42:13.205Z,12.72
2019-04-27T10:43:13.193Z,12.79
2019-04-27T10:44:13.187Z,12.78
2019-04-27T10:45:13.174Z,12.78
2019-04-27T10:46:13.169Z,12.71
2019-04-27T10:47:13.135Z,12.72
2019-04-27T10:48:13.138Z,12.65
2019-04-27T10:49:13.163Z,12.77
2019-04-27T10:50:13.122Z,12.64
2019-04-27T10:51:13.088Z,12.70
2019-04-27T10:52:13.084Z,12.67
2019-04-27T10:53:13.068Z,12.67
2019-04-27T10:54:13.061Z,12.62
2019-04-27T10:55:13.079Z,12.65
2019-04-27T10:56:13.034Z,12.59
2019-04-27T10:57:13.025Z,12.60
2019-04-27T10:58:13.017Z,12.54
2019-04-27T10:59:13.029Z,12.67
2019-04-27T11:00:12.987Z,12.64
2019-04-27T11:01:12.996Z,12.54
2019-04-27T11:02:12.968Z,12.56
2019-04-27T11:03:12.969Z,12.54
2019-04-27T11:04:12.964Z,12.56
2019-04-27T11:05:12.964Z,12.60
2019-04-27T11:06:12.929Z,12.60
2019-04-27T11:07:12.919Z,12.59
2019-04-27T11:08:12.903Z,12.62
2019-04-27T11:09:12.911Z,12.64
2019-04-27T11:10:13.002Z,12.59
2019-04-27T11:11:12.874Z,12.54
2019-04-27T11:12:12.855Z,12.62
2019-04-27T11:13:12.856Z,12.60
2019-04-27T11:14:12.864Z,12.60
2019-04-27T11:15:12.839Z,12.65
2019-04-27T11:16:12.814Z,12.67
2019-04-27T11:17:12.806Z,12.57
2019-04-27T11:18:12.807Z,12.57
2019-04-27T11:19:12.797Z,12.52
2019-04-27T11:20:12.768Z,12.57
2019-04-27T11:21:12.758Z,12.50
2019-04-27T11:22:12.746Z,12.47
2019-04-27T11:23:12.733Z,12.37
2019-04-27T11:24:12.744Z,12.29
2019-04-27T11:25:12.732Z,12.21
2019-04-27T11:26:12.733Z,12.29
2019-04-27T11:27:12.690Z,12.35
2019-04-27T11:28:12.676Z,12.23
2019-04-27T11:29:12.685Z,12.19
2019-04-27T11:30:12.706Z,12.19
2019-04-27T11:31:12.656Z,12.19
2019-04-27T11:32:12.631Z,12.17
2019-04-27T11:33:12.620Z,12.19
2019-04-27T11:34:12.616Z,12.12
2019-04-27T11:35:12.597Z,12.16
2019-04-27T11:36:14.854Z,12.27
2019-04-27T11:37:12.580Z,12.20
2019-04-27T11:38:12.585Z,12.21
2019-04-27T11:39:12.557Z,12.21
2019-04-27T11:40:12.565Z,12.20
2019-04-27T11:41:12.551Z,12.09
2019-04-27T11:42:12.552Z,12.14
2019-04-27T11:43:12.506Z,12.28
2019-04-27T11:44:12.511Z,12.12
2019-04-27T11:45:12.499Z,12.14
2019-04-27T11:46:12.491Z,12.23
2019-04-27T11:47:12.468Z,12.21
2019-04-27T11:48:12.455Z,12.23
2019-04-27T11:49:12.473Z,12.13
2019-04-27T11:50:12.464Z,12.19
2019-04-27T11:51:12.435Z,12.16
2019-04-27T11:52:12.420Z,12.23
2019-04-27T11:53:22.071Z,12.13
2019-04-27T11:54:13.387Z,12.14
2019-04-27T11:55:12.397Z,12.12
2019-04-27T11:56:12.382Z,12.12
2019-04-27T11:57:12.362Z,12.09
2019-04-27T11:58:12.361Z,12.13
2019-04-27T11:59:12.339Z,12.13
2019-04-27T12:00:12.319Z,12.16
2019-04-27T12:01:12.333Z,12.16
2019-04-27T12:02:12.332Z,12.19
2019-04-27T12:03:12.287Z,12.20
2019-04-27T12:04:12.298Z,12.13
2019-04-27T12:05:12.275Z,12.28
2019-04-27T12:06:12.281Z,12.17
2019-04-27T12:07:12.252Z,12.24
2019-04-27T12:08:12.235Z,12.21
2019-04-27T12:09:12.230Z,12.21
2019-04-27T12:10:12.242Z,12.20
2019-04-27T12:11:12.230Z,12.16
2019-04-27T12:12:18.211Z,12.20
2019-04-27T12:13:13.177Z,12.10
2019-04-27T12:14:12.181Z,12.24
2019-04-27T12:15:12.159Z,12.17
2019-04-27T12:16:12.186Z,12.16
2019-04-27T12:17:12.134Z,12.23
2019-04-27T12:18:12.137Z,12.13
2019-04-27T12:19:12.138Z,12.27
2019-04-27T12:20:12.128Z,12.31
2019-04-27T12:21:12.126Z,12.32
2019-04-27T12:22:12.141Z,12.27
2019-04-27T12:23:12.092Z,12.49
2019-04-27T12:24:12.077Z,12.50
2019-04-27T12:25:12.060Z,12.47
2019-04-27T12:26:12.037Z,12.47
2019-04-27T12:27:12.052Z,12.49
2019-04-27T12:28:12.020Z,12.46
2019-04-27T12:29:12.007Z,12.41
2019-04-27T12:30:12.013Z,12.41
2019-04-27T12:31:11.981Z,12.46
2019-04-27T12:32:12.000Z,12.41
2019-04-27T12:33:11.963Z,12.47
2019-04-27T12:34:11.950Z,12.45
2019-04-27T12:35:11.936Z,12.47
2019-04-27T12:36:11.938Z,12.39
2019-04-27T12:37:11.936Z,12.41
2019-04-27T12:38:11.924Z,12.45
2019-04-27T12:39:11.918Z,12.42
2019-04-27T12:40:11.876Z,12.35
2019-04-27T12:41:11.867Z,12.49
2019-04-27T12:42:11.895Z,12.47
2019-04-27T12:43:11.866Z,12.45
2019-04-27T12:44:11.849Z,12.46
2019-04-27T12:45:11.826Z,12.52
2019-04-27T12:46:11.812Z,12.53
2019-04-27T12:47:11.837Z,12.59
2019-04-27T12:48:11.812Z,12.68
2019-04-27T12:49:11.786Z,12.62
2019-04-27T12:50:11.765Z,12.64
2019-04-27T12:51:11.762Z,12.70
2019-04-27T12:52:11.769Z,12.71
2019-04-27T12:53:11.744Z,12.70
2019-04-27T12:54:11.728Z,12.77
2019-04-27T12:55:11.721Z,12.78
2019-04-27T12:56:11.700Z,12.95
2019-04-27T12:57:11.708Z,12.95
2019-04-27T12:58:11.688Z,13.00
2019-04-27T12:59:11.677Z,13.12